ENSD/SDN METAR and TAF weather

Enter ICAO airport designator
Station Type Date Time Source
ENSD METAR 2018/10/20 12:50 UTC NOAA

ENSD 201250Z VRB08G18KT 9999 VCSH BKN040 10/03 Q1020 RMK WIND 1138FT 19006KT


Station Type Date Time Source
ENSD Decoded METAR 2018/10/20 12:50 UTC NOAA

Sandane / Anda, Norway (ENSD) 61-50N 006-07E 60M
Oct 20, 2018 - 08:50 AM EDT / 2018.10.20 1250 UTC
Wind: Variable at 9 MPH (8 KT) gusting to 21 MPH (18 KT):0
Visibility: greater than 7 mile(s):0
Sky conditions: mostly cloudy
Weather: showers in the vicinity
Temperature: 50 F (10 C)
Dew Point: 37 F (3 C)
Relative Humidity: 61%
Pressure (altimeter): 30.12 in. Hg (1020 hPa)
ob: ENSD 201250Z VRB08G18KT 9999 VCSH BKN040 10/03 Q1020 RMK WIND 1138FT 19006KT
cycle: 13

Station Type Date Time Source
ENSD TAF UTC NOAA

Error!


Example: see airport list